sensor_id;sensor_type;location;lat;lon;timestamp;P1;durP1;ratioP1;P2;durP2;ratioP2
21030;SDS011;61072;47.808;7.636;2023-06-22T05:44:29;20.95;;;9.30;;
21030;SDS011;61072;47.808;7.636;2023-06-22T05:46:56;12.32;;;8.45;;
21030;SDS011;61072;47.808;7.636;2023-06-22T05:49:23;11.27;;;8.30;;
21030;SDS011;61072;47.808;7.636;2023-06-22T05:51:55;18.65;;;10.80;;
21030;SDS011;61072;47.808;7.636;2023-06-22T05:54:23;17.15;;;12.15;;
21030;SDS011;61072;47.808;7.636;2023-06-22T05:56:49;20.02;;;15.73;;
21030;SDS011;61072;47.808;7.636;2023-06-22T05:59:16;19.33;;;15.88;;
21030;SDS011;61072;47.808;7.636;2023-06-22T06:01:43;22.60;;;15.93;;
21030;SDS011;61072;47.808;7.636;2023-06-22T06:04:10;33.38;;;17.33;;
21030;SDS011;61072;47.808;7.636;2023-06-22T06:06:36;20.40;;;15.77;;
21030;SDS011;61072;47.808;7.636;2023-06-22T06:09:04;19.33;;;16.58;;
21030;SDS011;61072;47.808;7.636;2023-06-22T06:11:31;20.98;;;16.98;;
21030;SDS011;61072;47.808;7.636;2023-06-22T06:13:57;27.15;;;18.55;;
21030;SDS011;61072;47.808;7.636;2023-06-22T06:16:24;24.00;;;16.73;;
21030;SDS011;61072;47.808;7.636;2023-06-22T06:18:51;22.88;;;17.35;;
21030;SDS011;61072;47.808;7.636;2023-06-22T06:21:19;27.48;;;18.77;;
21030;SDS011;61072;47.808;7.636;2023-06-22T06:23:46;25.65;;;17.63;;
21030;SDS011;61072;47.808;7.636;2023-06-22T06:26:13;26.48;;;19.17;;
21030;SDS011;61072;47.808;7.636;2023-06-22T06:28:43;28.85;;;17.92;;
21030;SDS011;61072;47.808;7.636;2023-06-22T06:31:09;20.92;;;16.60;;
21030;SDS011;61072;47.808;7.636;2023-06-22T06:33:38;19.73;;;16.60;;
21030;SDS011;61072;47.808;7.636;2023-06-22T06:36:05;21.73;;;16.63;;
21030;SDS011;61072;47.808;7.636;2023-06-22T06:38:34;24.77;;;17.08;;
21030;SDS011;61072;47.808;7.636;2023-06-22T06:41:01;18.42;;;15.98;;
21030;SDS011;61072;47.808;7.636;2023-06-22T06:43:28;22.83;;;17.05;;
21030;SDS011;61072;47.808;7.636;2023-06-22T06:45:54;22.92;;;16.90;;
21030;SDS011;61072;47.808;7.636;2023-06-22T06:48:21;23.50;;;16.30;;
21030;SDS011;61072;47.808;7.636;2023-06-22T06:50:48;26.58;;;16.80;;
21030;SDS011;61072;47.808;7.636;2023-06-22T06:53:15;22.33;;;15.80;;
21030;SDS011;61072;47.808;7.636;2023-06-22T06:55:41;18.95;;;14.10;;
21030;SDS011;61072;47.808;7.636;2023-06-22T06:58:08;19.98;;;13.15;;
21030;SDS011;61072;47.808;7.636;2023-06-22T07:00:36;17.08;;;12.60;;
21030;SDS011;61072;47.808;7.636;2023-06-22T07:03:03;26.48;;;13.73;;
21030;SDS011;61072;47.808;7.636;2023-06-22T07:05:30;15.23;;;11.10;;
21030;SDS011;61072;47.808;7.636;2023-06-22T07:07:57;17.60;;;10.15;;
21030;SDS011;61072;47.808;7.636;2023-06-22T07:10:24;14.18;;;9.48;;
21030;SDS011;61072;47.808;7.636;2023-06-22T07:12:50;22.67;;;9.40;;
21030;SDS011;61072;47.808;7.636;2023-06-22T07:15:17;19.80;;;9.13;;
21030;SDS011;61072;47.808;7.636;2023-06-22T07:17:44;16.67;;;10.05;;
21030;SDS011;61072;47.808;7.636;2023-06-22T07:20:11;15.60;;;12.07;;
21030;SDS011;61072;47.808;7.636;2023-06-22T07:22:39;17.13;;;10.88;;
21030;SDS011;61072;47.808;7.636;2023-06-22T07:25:07;16.17;;;10.30;;
21030;SDS011;61072;47.808;7.636;2023-06-22T07:27:56;18.08;;;10.45;;
21030;SDS011;61072;47.808;7.636;2023-06-22T07:30:24;16.42;;;11.25;;
21030;SDS011;61072;47.808;7.636;2023-06-22T07:32:51;14.75;;;9.45;;
21030;SDS011;61072;47.808;7.636;2023-06-22T07:35:18;17.20;;;8.35;;
21030;SDS011;61072;47.808;7.636;2023-06-22T07:37:45;18.27;;;8.65;;
21030;SDS011;61072;47.808;7.636;2023-06-22T07:40:12;12.20;;;7.85;;
21030;SDS011;61072;47.808;7.636;2023-06-22T07:42:39;12.65;;;8.07;;
21030;SDS011;61072;47.808;7.636;2023-06-22T07:45:06;18.65;;;7.53;;
21030;SDS011;61072;47.808;7.636;2023-06-22T07:47:34;11.30;;;6.68;;
21030;SDS011;61072;47.808;7.636;2023-06-22T07:50:02;13.93;;;8.73;;
21030;SDS011;61072;47.808;7.636;2023-06-22T07:52:30;19.75;;;10.85;;
21030;SDS011;61072;47.808;7.636;2023-06-22T07:54:57;17.55;;;9.05;;
21030;SDS011;61072;47.808;7.636;2023-06-22T07:57:24;16.30;;;8.38;;
21030;SDS011;61072;47.808;7.636;2023-06-22T07:59:59;17.98;;;7.68;;
21030;SDS011;61072;47.808;7.636;2023-06-22T08:02:27;13.63;;;7.53;;
21030;SDS011;61072;47.808;7.636;2023-06-22T08:04:53;18.13;;;7.20;;
21030;SDS011;61072;47.808;7.636;2023-06-22T08:07:40;16.95;;;7.30;;
21030;SDS011;61072;47.808;7.636;2023-06-22T08:10:10;12.35;;;7.63;;
21030;SDS011;61072;47.808;7.636;2023-06-22T08:12:38;13.80;;;7.35;;
21030;SDS011;61072;47.808;7.636;2023-06-22T08:15:05;13.23;;;7.43;;
21030;SDS011;61072;47.808;7.636;2023-06-22T08:17:33;14.80;;;7.28;;
21030;SDS011;61072;47.808;7.636;2023-06-22T08:20:01;12.90;;;7.00;;
21030;SDS011;61072;47.808;7.636;2023-06-22T08:22:29;15.15;;;6.97;;
21030;SDS011;61072;47.808;7.636;2023-06-22T08:24:56;13.88;;;7.18;;
21030;SDS011;61072;47.808;7.636;2023-06-22T08:27:23;14.60;;;7.22;;
21030;SDS011;61072;47.808;7.636;2023-06-22T08:29:50;17.00;;;7.43;;
21030;SDS011;61072;47.808;7.636;2023-06-22T08:32:17;10.05;;;6.78;;
21030;SDS011;61072;47.808;7.636;2023-06-22T08:34:44;15.68;;;6.97;;
21030;SDS011;61072;47.808;7.636;2023-06-22T08:37:11;15.30;;;7.43;;
21030;SDS011;61072;47.808;7.636;2023-06-22T08:39:38;12.38;;;6.70;;
21030;SDS011;61072;47.808;7.636;2023-06-22T08:42:05;18.70;;;7.90;;
21030;SDS011;61072;47.808;7.636;2023-06-22T08:44:32;18.75;;;8.20;;
21030;SDS011;61072;47.808;7.636;2023-06-22T08:46:59;16.38;;;7.88;;
21030;SDS011;61072;47.808;7.636;2023-06-22T08:49:25;12.65;;;7.78;;
21030;SDS011;61072;47.808;7.636;2023-06-22T08:51:52;12.23;;;8.13;;
21030;SDS011;61072;47.808;7.636;2023-06-22T08:54:22;16.17;;;7.93;;
21030;SDS011;61072;47.808;7.636;2023-06-22T08:56:49;18.88;;;8.57;;
21030;SDS011;61072;47.808;7.636;2023-06-22T08:59:15;13.38;;;7.55;;
21030;SDS011;61072;47.808;7.636;2023-06-22T09:01:42;12.70;;;8.25;;
21030;SDS011;61072;47.808;7.636;2023-06-22T09:04:11;15.13;;;8.05;;
21030;SDS011;61072;47.808;7.636;2023-06-22T09:06:39;14.95;;;7.53;;
21030;SDS011;61072;47.808;7.636;2023-06-22T09:09:12;13.32;;;8.25;;
21030;SDS011;61072;47.808;7.636;2023-06-22T09:11:39;15.13;;;8.68;;
21030;SDS011;61072;47.808;7.636;2023-06-22T09:14:05;17.95;;;7.82;;
21030;SDS011;61072;47.808;7.636;2023-06-22T09:16:33;14.23;;;8.70;;
21030;SDS011;61072;47.808;7.636;2023-06-22T09:19:00;13.77;;;7.90;;
21030;SDS011;61072;47.808;7.636;2023-06-22T09:21:27;17.42;;;8.50;;
21030;SDS011;61072;47.808;7.636;2023-06-22T09:23:54;15.10;;;8.75;;
21030;SDS011;61072;47.808;7.636;2023-06-22T09:26:21;11.43;;;7.40;;
21030;SDS011;61072;47.808;7.636;2023-06-22T09:28:49;12.77;;;7.78;;
21030;SDS011;61072;47.808;7.636;2023-06-22T09:31:16;15.00;;;8.02;;
21030;SDS011;61072;47.808;7.636;2023-06-22T09:33:43;13.30;;;7.82;;
21030;SDS011;61072;47.808;7.636;2023-06-22T09:36:10;13.02;;;8.50;;
21030;SDS011;61072;47.808;7.636;2023-06-22T09:38:37;12.70;;;7.95;;
21030;SDS011;61072;47.808;7.636;2023-06-22T09:41:04;18.58;;;9.13;;
21030;SDS011;61072;47.808;7.636;2023-06-22T09:43:31;14.80;;;8.25;;
21030;SDS011;61072;47.808;7.636;2023-06-22T09:45:58;15.18;;;8.10;;
21030;SDS011;61072;47.808;7.636;2023-06-22T09:48:25;13.38;;;7.75;;
21030;SDS011;61072;47.808;7.636;2023-06-22T09:50:52;17.40;;;8.52;;
21030;SDS011;61072;47.808;7.636;2023-06-22T09:53:19;16.05;;;8.00;;
21030;SDS011;61072;47.808;7.636;2023-06-22T09:55:45;20.23;;;8.93;;
21030;SDS011;61072;47.808;7.636;2023-06-22T09:58:13;14.13;;;8.07;;
21030;SDS011;61072;47.808;7.636;2023-06-22T10:00:39;11.93;;;7.22;;
21030;SDS011;61072;47.808;7.636;2023-06-22T10:03:07;17.42;;;8.88;;
21030;SDS011;61072;47.808;7.636;2023-06-22T10:05:35;15.38;;;8.57;;
21030;SDS011;61072;47.808;7.636;2023-06-22T10:08:02;19.80;;;8.80;;
21030;SDS011;61072;47.808;7.636;2023-06-22T10:10:28;17.45;;;8.20;;
21030;SDS011;61072;47.808;7.636;2023-06-22T10:12:56;19.63;;;9.48;;
21030;SDS011;61072;47.808;7.636;2023-06-22T10:15:24;14.00;;;8.10;;
21030;SDS011;61072;47.808;7.636;2023-06-22T10:17:50;14.10;;;8.45;;
21030;SDS011;61072;47.808;7.636;2023-06-22T10:20:18;15.82;;;8.52;;
21030;SDS011;61072;47.808;7.636;2023-06-22T10:22:45;17.33;;;9.02;;
21030;SDS011;61072;47.808;7.636;2023-06-22T10:25:12;16.10;;;8.05;;
21030;SDS011;61072;47.808;7.636;2023-06-22T10:27:39;17.33;;;8.02;;
21030;SDS011;61072;47.808;7.636;2023-06-22T10:30:09;12.95;;;8.80;;
21030;SDS011;61072;47.808;7.636;2023-06-22T10:32:39;17.35;;;8.93;;
21030;SDS011;61072;47.808;7.636;2023-06-22T10:35:07;14.48;;;8.10;;
21030;SDS011;61072;47.808;7.636;2023-06-22T10:37:35;19.13;;;8.75;;
21030;SDS011;61072;47.808;7.636;2023-06-22T10:40:02;17.60;;;9.57;;
21030;SDS011;61072;47.808;7.636;2023-06-22T10:42:30;16.02;;;9.70;;
21030;SDS011;61072;47.808;7.636;2023-06-22T10:44:57;14.43;;;7.97;;
21030;SDS011;61072;47.808;7.636;2023-06-22T10:47:23;16.00;;;9.13;;
21030;SDS011;61072;47.808;7.636;2023-06-22T10:49:50;14.30;;;9.27;;
21030;SDS011;61072;47.808;7.636;2023-06-22T10:52:17;13.88;;;8.98;;
21030;SDS011;61072;47.808;7.636;2023-06-22T10:54:43;14.90;;;8.88;;
21030;SDS011;61072;47.808;7.636;2023-06-22T10:57:10;19.92;;;9.07;;
21030;SDS011;61072;47.808;7.636;2023-06-22T10:59:37;15.00;;;8.15;;
21030;SDS011;61072;47.808;7.636;2023-06-22T11:02:04;17.85;;;8.88;;
21030;SDS011;61072;47.808;7.636;2023-06-22T11:04:31;20.00;;;8.80;;
21030;SDS011;61072;47.808;7.636;2023-06-22T11:06:58;34.95;;;9.48;;
21030;SDS011;61072;47.808;7.636;2023-06-22T11:09:24;21.92;;;8.40;;
21030;SDS011;61072;47.808;7.636;2023-06-22T11:11:55;17.15;;;8.25;;
21030;SDS011;61072;47.808;7.636;2023-06-22T11:14:22;14.82;;;8.32;;
21030;SDS011;61072;47.808;7.636;2023-06-22T11:16:49;19.48;;;8.40;;
21030;SDS011;61072;47.808;7.636;2023-06-22T11:19:16;16.17;;;7.00;;
21030;SDS011;61072;47.808;7.636;2023-06-22T11:21:43;13.05;;;8.20;;
21030;SDS011;61072;47.808;7.636;2023-06-22T11:24:10;15.52;;;8.00;;
21030;SDS011;61072;47.808;7.636;2023-06-22T11:26:36;17.55;;;8.82;;
21030;SDS011;61072;47.808;7.636;2023-06-22T11:29:03;12.82;;;7.55;;
21030;SDS011;61072;47.808;7.636;2023-06-22T11:31:34;20.90;;;7.97;;
21030;SDS011;61072;47.808;7.636;2023-06-22T11:34:02;16.50;;;8.27;;
21030;SDS011;61072;47.808;7.636;2023-06-22T11:36:29;17.55;;;8.63;;
21030;SDS011;61072;47.808;7.636;2023-06-22T11:41:25;11.30;;;6.55;;
21030;SDS011;61072;47.808;7.636;2023-06-22T11:43:52;14.88;;;6.70;;
21030;SDS011;61072;47.808;7.636;2023-06-22T11:46:19;12.25;;;7.38;;
21030;SDS011;61072;47.808;7.636;2023-06-22T11:48:46;15.88;;;7.50;;
21030;SDS011;61072;47.808;7.636;2023-06-22T11:51:13;17.35;;;7.32;;
21030;SDS011;61072;47.808;7.636;2023-06-22T11:53:40;11.52;;;6.22;;
21030;SDS011;61072;47.808;7.636;2023-06-22T11:56:07;12.05;;;5.28;;
21030;SDS011;61072;47.808;7.636;2023-06-22T11:58:35;12.95;;;5.43;;
21030;SDS011;61072;47.808;7.636;2023-06-22T12:01:02;14.02;;;6.78;;
21030;SDS011;61072;47.808;7.636;2023-06-22T12:03:29;13.02;;;6.80;;
21030;SDS011;61072;47.808;7.636;2023-06-22T12:05:56;17.42;;;7.35;;
21030;SDS011;61072;47.808;7.636;2023-06-22T12:08:23;10.35;;;6.70;;
21030;SDS011;61072;47.808;7.636;2023-06-22T12:10:50;13.85;;;6.72;;
21030;SDS011;61072;47.808;7.636;2023-06-22T12:13:18;15.68;;;7.30;;
21030;SDS011;61072;47.808;7.636;2023-06-22T12:15:45;14.85;;;7.10;;
21030;SDS011;61072;47.808;7.636;2023-06-22T12:18:11;14.00;;;7.72;;
21030;SDS011;61072;47.808;7.636;2023-06-22T12:20:40;13.40;;;7.32;;
21030;SDS011;61072;47.808;7.636;2023-06-22T12:23:07;18.58;;;8.32;;
21030;SDS011;61072;47.808;7.636;2023-06-22T12:25:34;14.80;;;6.63;;
21030;SDS011;61072;47.808;7.636;2023-06-22T12:28:01;18.27;;;6.72;;
21030;SDS011;61072;47.808;7.636;2023-06-22T12:30:27;16.13;;;7.20;;
21030;SDS011;61072;47.808;7.636;2023-06-22T12:32:55;16.77;;;7.00;;
21030;SDS011;61072;47.808;7.636;2023-06-22T12:35:22;12.73;;;6.05;;
21030;SDS011;61072;47.808;7.636;2023-06-22T12:37:49;12.20;;;5.80;;
21030;SDS011;61072;47.808;7.636;2023-06-22T12:40:15;12.52;;;5.20;;
21030;SDS011;61072;47.808;7.636;2023-06-22T12:42:42;11.10;;;5.32;;
21030;SDS011;61072;47.808;7.636;2023-06-22T12:45:10;15.48;;;5.85;;
21030;SDS011;61072;47.808;7.636;2023-06-22T12:47:37;13.15;;;5.90;;
21030;SDS011;61072;47.808;7.636;2023-06-22T12:50:04;13.23;;;5.75;;
21030;SDS011;61072;47.808;7.636;2023-06-22T12:52:31;16.95;;;6.10;;
21030;SDS011;61072;47.808;7.636;2023-06-22T12:54:58;12.40;;;5.63;;
21030;SDS011;61072;47.808;7.636;2023-06-22T12:57:25;17.83;;;5.80;;
21030;SDS011;61072;47.808;7.636;2023-06-22T12:59:52;13.55;;;5.57;;
21030;SDS011;61072;47.808;7.636;2023-06-22T13:02:19;17.13;;;6.53;;
21030;SDS011;61072;47.808;7.636;2023-06-22T13:04:45;13.75;;;5.95;;
21030;SDS011;61072;47.808;7.636;2023-06-22T13:07:12;11.98;;;5.60;;
21030;SDS011;61072;47.808;7.636;2023-06-22T13:09:49;14.07;;;6.22;;
21030;SDS011;61072;47.808;7.636;2023-06-22T13:12:20;15.23;;;5.80;;
21030;SDS011;61072;47.808;7.636;2023-06-22T13:14:47;17.27;;;6.35;;
21030;SDS011;61072;47.808;7.636;2023-06-22T13:17:14;18.42;;;6.53;;
21030;SDS011;61072;47.808;7.636;2023-06-22T13:19:41;17.83;;;6.85;;
21030;SDS011;61072;47.808;7.636;2023-06-22T13:22:25;14.95;;;6.40;;
21030;SDS011;61072;47.808;7.636;2023-06-22T13:24:57;12.90;;;6.18;;
21030;SDS011;61072;47.808;7.636;2023-06-22T13:27:25;15.23;;;6.75;;
21030;SDS011;61072;47.808;7.636;2023-06-22T13:29:53;12.18;;;6.15;;
21030;SDS011;61072;47.808;7.636;2023-06-22T13:32:20;14.07;;;6.45;;
21030;SDS011;61072;47.808;7.636;2023-06-22T13:34:47;14.55;;;7.00;;
21030;SDS011;61072;47.808;7.636;2023-06-22T13:37:13;16.13;;;6.55;;
21030;SDS011;61072;47.808;7.636;2023-06-22T13:39:40;17.08;;;6.20;;
21030;SDS011;61072;47.808;7.636;2023-06-22T13:42:07;15.65;;;5.95;;
21030;SDS011;61072;47.808;7.636;2023-06-22T13:44:34;17.23;;;6.30;;
21030;SDS011;61072;47.808;7.636;2023-06-22T13:47:01;14.20;;;5.50;;
21030;SDS011;61072;47.808;7.636;2023-06-22T13:49:27;16.20;;;7.13;;
21030;SDS011;61072;47.808;7.636;2023-06-22T13:51:55;13.65;;;5.72;;
21030;SDS011;61072;47.808;7.636;2023-06-22T13:54:21;13.73;;;6.00;;
21030;SDS011;61072;47.808;7.636;2023-06-22T13:56:51;12.32;;;5.47;;
21030;SDS011;61072;47.808;7.636;2023-06-22T13:59:18;13.80;;;6.10;;
21030;SDS011;61072;47.808;7.636;2023-06-22T14:01:46;16.10;;;6.32;;
21030;SDS011;61072;47.808;7.636;2023-06-22T14:04:13;11.80;;;5.95;;
21030;SDS011;61072;47.808;7.636;2023-06-22T14:06:40;14.13;;;6.50;;
21030;SDS011;61072;47.808;7.636;2023-06-22T14:09:06;14.02;;;6.60;;
21030;SDS011;61072;47.808;7.636;2023-06-22T14:11:33;14.18;;;6.10;;
21030;SDS011;61072;47.808;7.636;2023-06-22T14:14:00;14.77;;;6.47;;
21030;SDS011;61072;47.808;7.636;2023-06-22T14:16:26;11.30;;;5.50;;
21030;SDS011;61072;47.808;7.636;2023-06-22T14:18:53;19.08;;;5.95;;
21030;SDS011;61072;47.808;7.636;2023-06-22T14:21:23;15.13;;;5.65;;
21030;SDS011;61072;47.808;7.636;2023-06-22T14:23:50;15.32;;;5.90;;
21030;SDS011;61072;47.808;7.636;2023-06-22T14:26:17;20.65;;;5.93;;
21030;SDS011;61072;47.808;7.636;2023-06-22T14:28:47;12.23;;;4.82;;
21030;SDS011;61072;47.808;7.636;2023-06-22T14:31:16;10.13;;;4.93;;
21030;SDS011;61072;47.808;7.636;2023-06-22T14:33:45;14.35;;;5.55;;
21030;SDS011;61072;47.808;7.636;2023-06-22T14:36:13;12.95;;;5.10;;
21030;SDS011;61072;47.808;7.636;2023-06-22T14:38:45;14.45;;;5.57;;
21030;SDS011;61072;47.808;7.636;2023-06-22T14:41:13;12.23;;;5.65;;
21030;SDS011;61072;47.808;7.636;2023-06-22T14:43:45;13.25;;;4.82;;
21030;SDS011;61072;47.808;7.636;2023-06-22T14:46:17;11.75;;;4.50;;
21030;SDS011;61072;47.808;7.636;2023-06-22T14:48:45;14.57;;;5.25;;
21030;SDS011;61072;47.808;7.636;2023-06-22T14:51:12;13.90;;;4.78;;
21030;SDS011;61072;47.808;7.636;2023-06-22T14:53:43;13.63;;;5.05;;
21030;SDS011;61072;47.808;7.636;2023-06-22T14:56:12;15.10;;;4.73;;
21030;SDS011;61072;47.808;7.636;2023-06-22T14:58:41;14.57;;;6.50;;
21030;SDS011;61072;47.808;7.636;2023-06-22T15:01:12;13.00;;;5.18;;
21030;SDS011;61072;47.808;7.636;2023-06-22T15:03:39;11.55;;;4.22;;
21030;SDS011;61072;47.808;7.636;2023-06-22T15:06:06;15.48;;;5.07;;
21030;SDS011;61072;47.808;7.636;2023-06-22T15:08:36;14.32;;;5.45;;
21030;SDS011;61072;47.808;7.636;2023-06-22T15:11:06;14.15;;;4.35;;
21030;SDS011;61072;47.808;7.636;2023-06-22T15:13:33;13.40;;;5.53;;
21030;SDS011;61072;47.808;7.636;2023-06-22T15:16:01;16.42;;;5.38;;
21030;SDS011;61072;47.808;7.636;2023-06-22T15:18:30;15.70;;;5.07;;
21030;SDS011;61072;47.808;7.636;2023-06-22T15:20:56;14.65;;;5.00;;
21030;SDS011;61072;47.808;7.636;2023-06-22T15:23:24;13.02;;;4.40;;
21030;SDS011;61072;47.808;7.636;2023-06-22T15:25:52;12.23;;;5.00;;
21030;SDS011;61072;47.808;7.636;2023-06-22T15:28:19;16.92;;;4.78;;
21030;SDS011;61072;47.808;7.636;2023-06-22T15:30:50;10.65;;;4.50;;
21030;SDS011;61072;47.808;7.636;2023-06-22T15:33:18;11.85;;;4.38;;
21030;SDS011;61072;47.808;7.636;2023-06-22T15:35:45;15.77;;;4.78;;
21030;SDS011;61072;47.808;7.636;2023-06-22T15:38:12;12.75;;;4.60;;
21030;SDS011;61072;47.808;7.636;2023-06-22T15:40:38;14.68;;;4.57;;
21030;SDS011;61072;47.808;7.636;2023-06-22T15:43:05;18.45;;;6.25;;
21030;SDS011;61072;47.808;7.636;2023-06-22T15:45:32;15.63;;;6.03;;
21030;SDS011;61072;47.808;7.636;2023-06-22T15:47:58;13.32;;;5.65;;
21030;SDS011;61072;47.808;7.636;2023-06-22T15:50:25;9.23;;;4.70;;
21030;SDS011;61072;47.808;7.636;2023-06-22T15:52:52;12.68;;;4.88;;
21030;SDS011;61072;47.808;7.636;2023-06-22T15:55:19;11.02;;;4.28;;
21030;SDS011;61072;47.808;7.636;2023-06-22T15:57:46;10.70;;;4.13;;
21030;SDS011;61072;47.808;7.636;2023-06-22T16:00:16;13.60;;;4.97;;
21030;SDS011;61072;47.808;7.636;2023-06-22T16:02:44;11.70;;;3.92;;
21030;SDS011;61072;47.808;7.636;2023-06-22T16:05:12;12.48;;;5.07;;
21030;SDS011;61072;47.808;7.636;2023-06-22T16:07:40;16.13;;;4.65;;
21030;SDS011;61072;47.808;7.636;2023-06-22T16:10:07;10.85;;;4.15;;
21030;SDS011;61072;47.808;7.636;2023-06-22T16:12:34;10.68;;;4.40;;
21030;SDS011;61072;47.808;7.636;2023-06-22T16:15:02;13.65;;;4.65;;
21030;SDS011;61072;47.808;7.636;2023-06-22T16:17:29;18.42;;;5.70;;
21030;SDS011;61072;47.808;7.636;2023-06-22T16:19:56;15.30;;;5.03;;
21030;SDS011;61072;47.808;7.636;2023-06-22T16:22:25;19.20;;;4.30;;
21030;SDS011;61072;47.808;7.636;2023-06-22T16:24:52;15.40;;;4.32;;
21030;SDS011;61072;47.808;7.636;2023-06-22T16:27:22;10.45;;;4.28;;
21030;SDS011;61072;47.808;7.636;2023-06-22T16:29:50;13.07;;;5.20;;
21030;SDS011;61072;47.808;7.636;2023-06-22T16:32:17;13.57;;;4.60;;
21030;SDS011;61072;47.808;7.636;2023-06-22T16:34:44;13.48;;;4.45;;
21030;SDS011;61072;47.808;7.636;2023-06-22T16:37:14;16.52;;;4.68;;
21030;SDS011;61072;47.808;7.636;2023-06-22T16:39:41;14.63;;;4.72;;
21030;SDS011;61072;47.808;7.636;2023-06-22T16:42:07;13.35;;;4.00;;
21030;SDS011;61072;47.808;7.636;2023-06-22T16:44:35;17.05;;;4.75;;
21030;SDS011;61072;47.808;7.636;2023-06-22T16:47:03;12.60;;;5.15;;
21030;SDS011;61072;47.808;7.636;2023-06-22T16:49:31;11.63;;;4.38;;
21030;SDS011;61072;47.808;7.636;2023-06-22T16:51:58;11.73;;;4.70;;
21030;SDS011;61072;47.808;7.636;2023-06-22T16:54:27;12.98;;;4.57;;
21030;SDS011;61072;47.808;7.636;2023-06-22T16:57:00;12.30;;;4.93;;
21030;SDS011;61072;47.808;7.636;2023-06-22T16:59:28;14.27;;;4.50;;
21030;SDS011;61072;47.808;7.636;2023-06-22T17:01:55;11.55;;;5.20;;
21030;SDS011;61072;47.808;7.636;2023-06-22T17:04:23;15.27;;;5.55;;
21030;SDS011;61072;47.808;7.636;2023-06-22T17:06:58;10.25;;;4.63;;
21030;SDS011;61072;47.808;7.636;2023-06-22T17:09:32;10.45;;;4.43;;
21030;SDS011;61072;47.808;7.636;2023-06-22T17:12:02;13.17;;;4.70;;
21030;SDS011;61072;47.808;7.636;2023-06-22T17:14:29;12.80;;;5.50;;
21030;SDS011;61072;47.808;7.636;2023-06-22T17:16:56;14.98;;;5.53;;
21030;SDS011;61072;47.808;7.636;2023-06-22T17:19:24;14.35;;;4.43;;
21030;SDS011;61072;47.808;7.636;2023-06-22T17:21:51;14.48;;;4.30;;
21030;SDS011;61072;47.808;7.636;2023-06-22T17:24:18;13.63;;;4.22;;
21030;SDS011;61072;47.808;7.636;2023-06-22T17:26:45;14.85;;;4.43;;
21030;SDS011;61072;47.808;7.636;2023-06-22T17:29:13;12.20;;;4.70;;
21030;SDS011;61072;47.808;7.636;2023-06-22T17:31:40;16.13;;;4.85;;
21030;SDS011;61072;47.808;7.636;2023-06-22T17:34:11;11.50;;;4.72;;
21030;SDS011;61072;47.808;7.636;2023-06-22T17:36:45;7.75;;;4.50;;
21030;SDS011;61072;47.808;7.636;2023-06-22T17:39:14;14.90;;;4.68;;
21030;SDS011;61072;47.808;7.636;2023-06-22T17:41:43;25.13;;;3.67;;
21030;SDS011;61072;47.808;7.636;2023-06-22T17:44:13;14.10;;;3.20;;
21030;SDS011;61072;47.808;7.636;2023-06-22T17:46:43;7.18;;;3.17;;
21030;SDS011;61072;47.808;7.636;2023-06-22T17:49:11;12.77;;;3.22;;
21030;SDS011;61072;47.808;7.636;2023-06-22T17:51:43;11.23;;;2.55;;
21030;SDS011;61072;47.808;7.636;2023-06-22T17:54:11;6.78;;;2.97;;
21030;SDS011;61072;47.808;7.636;2023-06-22T17:56:38;11.18;;;2.72;;
21030;SDS011;61072;47.808;7.636;2023-06-22T17:59:05;6.75;;;2.67;;
21030;SDS011;61072;47.808;7.636;2023-06-22T18:04:10;6.78;;;3.00;;
21030;SDS011;61072;47.808;7.636;2023-06-22T18:06:38;9.32;;;2.90;;
21030;SDS011;61072;47.808;7.636;2023-06-22T18:09:11;9.07;;;3.65;;
21030;SDS011;61072;47.808;7.636;2023-06-22T18:14:06;8.25;;;3.13;;
21030;SDS011;61072;47.808;7.636;2023-06-22T18:16:33;9.20;;;3.67;;
21030;SDS011;61072;47.808;7.636;2023-06-22T18:19:03;4.82;;;3.00;;
21030;SDS011;61072;47.808;7.636;2023-06-22T18:21:30;5.72;;;3.55;;
21030;SDS011;61072;47.808;7.636;2023-06-22T18:23:57;4.22;;;2.25;;
21030;SDS011;61072;47.808;7.636;2023-06-22T18:26:25;8.25;;;3.20;;
21030;SDS011;61072;47.808;7.636;2023-06-22T18:28:53;7.45;;;3.30;;
21030;SDS011;61072;47.808;7.636;2023-06-22T18:31:21;4.40;;;2.50;;
21030;SDS011;61072;47.808;7.636;2023-06-22T18:33:50;6.82;;;2.78;;
21030;SDS011;61072;47.808;7.636;2023-06-22T18:36:28;5.93;;;3.22;;
21030;SDS011;61072;47.808;7.636;2023-06-22T18:39:03;6.78;;;3.55;;
21030;SDS011;61072;47.808;7.636;2023-06-22T18:41:37;6.80;;;3.22;;
21030;SDS011;61072;47.808;7.636;2023-06-22T18:46:54;7.40;;;3.45;;
21030;SDS011;61072;47.808;7.636;2023-06-22T18:49:24;6.43;;;2.75;;
21030;SDS011;61072;47.808;7.636;2023-06-22T18:51:52;7.18;;;3.05;;
21030;SDS011;61072;47.808;7.636;2023-06-22T18:54:32;7.65;;;2.72;;
21030;SDS011;61072;47.808;7.636;2023-06-22T18:57:24;5.78;;;2.75;;
21030;SDS011;61072;47.808;7.636;2023-06-22T18:59:58;3.05;;;2.20;;
21030;SDS011;61072;47.808;7.636;2023-06-22T19:12:52;6.18;;;2.70;;
21030;SDS011;61072;47.808;7.636;2023-06-22T19:15:39;9.20;;;2.20;;
21030;SDS011;61072;47.808;7.636;2023-06-22T19:18:15;5.68;;;2.33;;
21030;SDS011;61072;47.808;7.636;2023-06-22T19:20:46;4.85;;;2.10;;
21030;SDS011;61072;47.808;7.636;2023-06-22T19:26:11;5.70;;;2.00;;
21030;SDS011;61072;47.808;7.636;2023-06-22T19:28:45;4.85;;;2.50;;
21030;SDS011;61072;47.808;7.636;2023-06-22T19:31:13;8.18;;;2.05;;
21030;SDS011;61072;47.808;7.636;2023-06-22T19:33:41;5.38;;;2.17;;
21030;SDS011;61072;47.808;7.636;2023-06-22T19:36:09;3.92;;;2.25;;
21030;SDS011;61072;47.808;7.636;2023-06-22T19:38:38;6.55;;;1.83;;
21030;SDS011;61072;47.808;7.636;2023-06-22T19:41:08;4.75;;;2.00;;
21030;SDS011;61072;47.808;7.636;2023-06-22T19:43:35;3.67;;;2.17;;
21030;SDS011;61072;47.808;7.636;2023-06-22T19:46:02;5.35;;;2.28;;
21030;SDS011;61072;47.808;7.636;2023-06-22T19:48:29;5.78;;;2.20;;
21030;SDS011;61072;47.808;7.636;2023-06-22T19:51:03;7.40;;;2.38;;
21030;SDS011;61072;47.808;7.636;2023-06-22T19:53:33;3.15;;;1.88;;
21030;SDS011;61072;47.808;7.636;2023-06-22T19:56:00;4.68;;;2.00;;
21030;SDS011;61072;47.808;7.636;2023-06-22T19:58:31;6.07;;;2.90;;
21030;SDS011;61072;47.808;7.636;2023-06-22T20:00:59;13.93;;;2.42;;
21030;SDS011;61072;47.808;7.636;2023-06-22T20:03:27;3.17;;;2.22;;
21030;SDS011;61072;47.808;7.636;2023-06-22T20:05:55;4.53;;;2.63;;
21030;SDS011;61072;47.808;7.636;2023-06-22T20:08:44;4.50;;;2.22;;
21030;SDS011;61072;47.808;7.636;2023-06-22T20:11:12;3.80;;;2.17;;
21030;SDS011;61072;47.808;7.636;2023-06-22T20:13:46;4.03;;;2.13;;
21030;SDS011;61072;47.808;7.636;2023-06-22T20:16:13;3.53;;;2.10;;
21030;SDS011;61072;47.808;7.636;2023-06-22T20:18:42;7.50;;;2.60;;
21030;SDS011;61072;47.808;7.636;2023-06-22T20:21:10;5.32;;;2.78;;
21030;SDS011;61072;47.808;7.636;2023-06-22T20:23:39;8.50;;;2.90;;
21030;SDS011;61072;47.808;7.636;2023-06-22T20:26:08;7.50;;;2.60;;
21030;SDS011;61072;47.808;7.636;2023-06-22T20:28:37;7.38;;;3.03;;
21030;SDS011;61072;47.808;7.636;2023-06-22T20:31:08;8.07;;;2.90;;
21030;SDS011;61072;47.808;7.636;2023-06-22T20:33:36;6.90;;;2.85;;
21030;SDS011;61072;47.808;7.636;2023-06-22T20:36:06;9.07;;;3.30;;
